Time;durP1;ratioP1;P1;durP2;ratioP2;P2;SDS_P1;SDS_P2;PMS_P1;PMS_P2;Temp;Humidity;BMP_temperature;BMP_pressure;BME280_temperature;BME280_humidity;BME280_pressure;Samples;Min_cycle;Max_cycle;Signal;HPM_P1;HPM_P2
2022/03/20 00:00:50;;;;;;;9.63;7.20;;;;;;;4.83;59.16;99749.41;4130739;28;20277;-54
2022/03/20 00:02:51;;;;;;;7.35;6.60;;;;;;;4.86;58.81;99747.16;4126520;28;20206;-50
2022/03/20 00:04:54;;;;;;;5.97;5.43;;;;;;;4.69;59.54;99745.63;4090808;28;20290;-51
2022/03/20 00:06:56;;;;;;;7.90;7.13;;;;;;;4.75;59.03;99742.19;4126594;28;20249;-52
2022/03/20 00:08:58;;;;;;;7.30;6.68;;;;;;;4.80;58.94;99737.03;4127807;28;20210;-52
2022/03/20 00:11:01;;;;;;;10.65;8.02;;;;;;;4.66;59.38;99745.97;4129202;28;20698;-52
2022/03/20 00:13:13;;;;;;;7.97;7.03;;;;;;;4.63;59.53;99740.94;4128050;28;20213;-52
2022/03/20 00:15:15;;;;;;;7.75;6.63;;;;;;;4.74;59.23;99748.63;4111388;28;20241;-52
2022/03/20 00:17:20;;;;;;;8.05;6.78;;;;;;;4.85;59.45;99734.63;4111768;28;20231;-52
2022/03/20 00:19:21;;;;;;;7.60;6.93;;;;;;;4.90;58.52;99737.63;4110280;28;20250;-53
2022/03/20 00:21:23;;;;;;;6.90;6.25;;;;;;;4.90;58.65;99731.38;4095142;28;20234;-53
2022/03/20 00:23:25;;;;;;;5.80;5.35;;;;;;;4.85;58.59;99734.63;4094001;28;20207;-56
2022/03/20 00:25:27;;;;;;;7.55;6.78;;;;;;;4.92;57.96;99735.56;4126699;28;20237;-52
2022/03/20 00:27:29;;;;;;;6.63;6.05;;;;;;;4.77;58.14;99726.59;4125555;28;20210;-52
2022/03/20 00:29:30;;;;;;;7.72;7.00;;;;;;;4.82;58.44;99724.16;4110616;28;20665;-52
2022/03/20 00:31:33;;;;;;;10.18;9.20;;;;;;;4.80;58.00;99720.78;4127611;28;20309;-52
2022/03/20 00:33:35;;;;;;;7.00;6.47;;;;;;;4.81;58.26;99716.22;4126056;28;20345;-51
2022/03/20 00:35:37;;;;;;;6.22;5.70;;;;;;;4.77;57.86;99720.31;4103144;28;20238;-53
2022/03/20 00:37:39;;;;;;;8.48;7.65;;;;;;;4.74;57.84;99720.69;4125239;28;20321;-53
2022/03/20 00:39:40;;;;;;;7.15;6.60;;;;;;;4.74;57.87;99707.94;4128470;28;20280;-53
2022/03/20 00:41:42;;;;;;;7.93;6.93;;;;;;;4.80;57.81;99704.50;4127867;28;20267;-52
2022/03/20 00:43:44;;;;;;;7.63;6.93;;;;;;;4.72;58.27;99710.00;4125655;28;20297;-52
2022/03/20 00:45:45;;;;;;;6.88;6.28;;;;;;;4.56;58.70;99707.47;4128038;28;20306;-52
2022/03/20 00:47:48;;;;;;;7.55;6.95;;;;;;;4.70;57.60;99709.38;4115151;28;20728;-53
2022/03/20 00:49:50;;;;;;;7.75;6.90;;;;;;;4.76;57.86;99711.34;4124490;28;20663;-52
2022/03/20 00:51:51;;;;;;;6.82;6.22;;;;;;;4.65;58.34;99705.50;4125108;28;20276;-53
2022/03/20 00:53:53;;;;;;;7.80;5.90;;;;;;;4.61;58.50;99712.34;4127018;28;20218;-53
2022/03/20 00:55:55;;;;;;;7.88;6.82;;;;;;;4.55;58.84;99703.06;4110452;28;20207;-56
2022/03/20 00:57:57;;;;;;;7.07;6.50;;;;;;;4.57;58.40;99694.72;4120874;28;20557;-57
2022/03/20 00:59:58;;;;;;;12.10;6.63;;;;;;;4.55;58.10;99702.22;4109208;28;20215;-55
2022/03/20 01:02:00;;;;;;;6.47;5.85;;;;;;;4.54;58.64;99698.66;4124367;28;20610;-55
2022/03/20 01:04:03;;;;;;;6.30;5.80;;;;;;;4.52;57.79;99695.28;4126420;28;20631;-55
2022/03/20 01:06:06;;;;;;;6.95;6.18;;;;;;;4.54;58.09;99693.22;4112791;28;20271;-55
2022/03/20 01:08:08;;;;;;;6.97;6.43;;;;;;;4.54;57.75;99692.41;4103828;28;20249;-57
2022/03/20 01:10:11;;;;;;;7.95;6.38;;;;;;;4.62;57.69;99690.47;4124897;28;20249;-57
2022/03/20 01:12:14;;;;;;;7.10;6.43;;;;;;;4.67;58.10;99698.88;4126600;28;20213;-57
2022/03/20 01:14:16;;;;;;;6.32;5.72;;;;;;;4.75;57.95;99689.81;4126669;28;20214;-57
2022/03/20 01:16:17;;;;;;;6.57;6.03;;;;;;;4.68;57.30;99684.28;4124860;28;20226;-56
2022/03/20 01:18:19;;;;;;;9.95;6.85;;;;;;;4.67;57.76;99685.31;4107105;28;20673;-56
2022/03/20 01:20:21;;;;;;;10.07;7.20;;;;;;;4.77;57.86;99680.50;4111723;28;20226;-56
2022/03/20 01:22:23;;;;;;;8.88;6.72;;;;;;;4.70;57.27;99676.84;4129608;28;20714;-56
2022/03/20 01:24:27;;;;;;;7.60;7.00;;;;;;;4.61;57.83;99683.34;4104414;28;20374;-55
2022/03/20 01:26:29;;;;;;;6.30;5.55;;;;;;;4.76;57.09;99676.09;4124152;28;20205;-56
2022/03/20 01:28:30;;;;;;;7.00;6.40;;;;;;;4.38;57.73;99669.00;4126494;28;20662;-57
2022/03/20 01:30:32;;;;;;;5.63;5.22;;;;;;;4.36;58.35;99667.50;4124956;28;20226;-56
2022/03/20 01:32:34;;;;;;;6.70;6.18;;;;;;;4.40;58.12;99664.22;4108359;28;20682;-56
2022/03/20 01:34:37;;;;;;;5.72;5.22;;;;;;;4.26;58.56;99656.09;4107844;28;20241;-56
2022/03/20 01:36:39;;;;;;;6.93;6.32;;;;;;;4.13;58.06;99643.13;4123460;28;20296;-56
2022/03/20 01:38:40;;;;;;;6.47;5.97;;;;;;;4.16;58.29;99640.09;4110060;28;20301;-56
2022/03/20 01:40:42;;;;;;;9.10;5.85;;;;;;;4.16;58.73;99641.94;4110649;28;20704;-56
2022/03/20 01:42:44;;;;;;;8.07;7.30;;;;;;;4.15;58.37;99627.53;4121684;28;20266;-56
2022/03/20 01:44:46;;;;;;;5.45;5.05;;;;;;;4.09;58.80;99628.28;4125587;28;20629;-55
2022/03/20 01:46:49;;;;;;;8.30;6.95;;;;;;;4.13;58.12;99635.00;4127418;28;20236;-56
2022/03/20 01:48:51;;;;;;;6.30;5.70;;;;;;;4.16;58.60;99628.38;4125106;28;20348;-55
2022/03/20 01:50:54;;;;;;;8.13;7.03;;;;;;;4.09;58.10;99622.03;4125893;28;20591;-55
2022/03/20 01:52:57;;;;;;;7.15;6.53;;;;;;;4.23;58.27;99624.78;4125324;28;20333;-55
2022/03/20 01:54:59;;;;;;;8.35;7.55;;;;;;;4.25;57.46;99611.88;4125986;28;20224;-55
2022/03/20 01:57:00;;;;;;;7.32;6.60;;;;;;;4.20;58.22;99614.28;4126243;28;20723;-56
2022/03/20 01:59:05;;;;;;;7.43;6.22;;;;;;;4.01;57.90;99609.38;4124806;28;20214;-57
2022/03/20 02:01:06;;;;;;;7.88;7.18;;;;;;;3.97;58.09;99608.06;4122777;28;20636;-57
2022/03/20 02:03:08;;;;;;;6.95;6.25;;;;;;;3.99;57.69;99611.44;4107749;28;20261;-54
2022/03/20 02:05:11;;;;;;;6.97;6.38;;;;;;;4.04;58.11;99609.03;4122702;28;20273;-56
2022/03/20 02:07:13;;;;;;;7.45;6.75;;;;;;;4.24;57.55;99612.91;4126967;28;20202;-57
2022/03/20 02:09:16;;;;;;;6.88;6.35;;;;;;;4.25;57.04;99602.91;4111419;28;20694;-57
2022/03/20 02:11:19;;;;;;;7.80;7.10;;;;;;;4.10;57.42;99602.88;4122902;28;20234;-56
2022/03/20 02:13:24;;;;;;;7.28;6.57;;;;;;;4.04;57.69;99603.63;4127487;28;20214;-56
2022/03/20 02:15:26;;;;;;;7.97;7.28;;;;;;;4.01;57.29;99603.13;4125494;28;20313;-55
2022/03/20 02:17:30;;;;;;;7.45;6.82;;;;;;;3.93;57.76;99601.31;4103086;28;20222;-56
2022/03/20 02:19:34;;;;;;;7.03;6.43;;;;;;;4.02;57.38;99589.44;4106660;28;20214;-55
2022/03/20 02:21:40;;;;;;;10.73;6.45;;;;;;;4.16;57.47;99585.06;4104133;28;20285;-56
2022/03/20 02:23:44;;;;;;;6.35;5.85;;;;;;;4.03;57.49;99585.69;4126555;28;20206;-55
2022/03/20 02:25:50;;;;;;;7.40;6.70;;;;;;;4.03;57.43;99582.97;4124969;28;20221;-56
2022/03/20 02:27:52;;;;;;;5.63;5.20;;;;;;;4.00;57.10;99591.44;4124829;28;20214;-55
2022/03/20 02:29:59;;;;;;;5.45;4.97;;;;;;;4.07;57.67;99581.56;4127289;28;20214;-56
2022/03/20 02:32:03;;;;;;;6.63;5.78;;;;;;;4.02;57.34;99577.75;4126867;28;20726;-57
2022/03/20 02:34:06;;;;;;;6.03;5.53;;;;;;;3.95;56.85;99576.78;4125477;28;20209;-55
2022/03/20 02:36:08;;;;;;;6.10;4.93;;;;;;;3.96;56.91;99579.31;4124736;28;20213;-56
2022/03/20 02:38:10;;;;;;;6.38;5.80;;;;;;;3.93;56.96;99574.25;4108167;28;20265;-56
2022/03/20 02:40:13;;;;;;;9.90;7.70;;;;;;;3.91;57.38;99565.47;4126011;28;20238;-57
2022/03/20 02:42:16;;;;;;;7.30;6.72;;;;;;;4.01;57.03;99565.22;4124564;28;20765;-56
2022/03/20 02:44:18;;;;;;;6.78;6.15;;;;;;;3.99;56.92;99557.28;4126249;28;20682;-56
2022/03/20 02:46:19;;;;;;;6.45;5.85;;;;;;;3.91;56.78;99562.78;4121195;28;20421;-56
2022/03/20 02:48:21;;;;;;;6.22;5.63;;;;;;;3.68;56.95;99547.56;4127330;28;20238;-56
2022/03/20 02:50:25;;;;;;;6.80;6.13;;;;;;;3.73;56.65;99543.28;4126297;28;20226;-56
2022/03/20 02:52:32;;;;;;;5.68;5.13;;;;;;;3.82;57.09;99541.38;4125152;28;20202;-55
2022/03/20 02:54:34;;;;;;;5.97;5.45;;;;;;;3.73;56.93;99540.59;4104993;28;20210;-55
2022/03/20 02:56:36;;;;;;;7.88;7.28;;;;;;;3.65;57.19;99553.34;4122422;28;20206;-56
2022/03/20 02:58:38;;;;;;;6.80;6.18;;;;;;;3.71;56.48;99558.88;4120025;28;20210;-56
2022/03/20 03:00:41;;;;;;;6.95;6.35;;;;;;;3.76;56.68;99556.47;4126408;28;20265;-56
2022/03/20 03:02:44;;;;;;;9.45;6.32;;;;;;;3.79;56.33;99545.28;4123177;28;20206;-56
2022/03/20 03:04:46;;;;;;;6.35;5.60;;;;;;;3.83;56.65;99560.13;4123108;28;20304;-55
2022/03/20 03:06:47;;;;;;;6.00;5.60;;;;;;;3.92;55.94;99558.19;4087480;28;20239;-55
2022/03/20 03:11:09;;;;;;;5.55;5.13;;;;;;;3.84;56.02;99559.13;4126584;28;20233;-56
2022/03/20 03:13:12;;;;;;;6.95;6.28;;;;;;;3.75;55.72;99552.06;4126405;28;20237;-55
2022/03/20 03:15:20;;;;;;;6.60;6.00;;;;;;;3.68;56.25;99559.22;4126317;28;20216;-56
2022/03/20 03:17:27;;;;;;;6.88;6.25;;;;;;;3.68;56.62;99551.09;4107661;28;20345;-55
2022/03/20 03:19:29;;;;;;;7.57;6.88;;;;;;;3.73;56.63;99545.19;4125225;28;20209;-56
2022/03/20 03:21:31;;;;;;;6.65;6.15;;;;;;;3.71;56.96;99555.31;4125074;28;20719;-56
2022/03/20 03:23:36;;;;;;;7.30;6.70;;;;;;;3.63;56.42;99542.72;4124670;28;20210;-56
2022/03/20 03:25:38;;;;;;;7.90;7.15;;;;;;;3.46;56.58;99530.31;4109120;28;20217;-56
2022/03/20 03:27:39;;;;;;;6.32;5.75;;;;;;;3.48;57.38;99522.84;4125100;28;20202;-56
2022/03/20 03:29:41;;;;;;;5.70;5.10;;;;;;;3.45;57.21;99531.34;4109795;28;20550;-56
2022/03/20 03:31:43;;;;;;;7.50;6.35;;;;;;;3.33;57.33;99530.06;4103707;28;20698;-56
2022/03/20 03:36:05;;;;;;;8.25;7.55;;;;;;;3.40;57.11;99533.75;4126093;28;20218;-56
2022/03/20 03:38:11;;;;;;;6.38;5.80;;;;;;;3.48;56.70;99546.38;4126117;28;20277;-56
2022/03/20 03:40:13;;;;;;;9.52;5.95;;;;;;;3.49;57.12;99540.78;4123638;28;20225;-56
2022/03/20 03:42:15;;;;;;;6.15;5.65;;;;;;;3.50;56.66;99534.34;4112380;28;20242;-57
2022/03/20 03:44:18;;;;;;;7.68;6.82;;;;;;;3.32;56.96;99535.66;4125680;28;20282;-56
2022/03/20 03:46:20;;;;;;;4.72;4.35;;;;;;;3.47;56.80;99529.28;4102431;28;20216;-56
2022/03/20 03:48:22;;;;;;;7.43;6.70;;;;;;;3.54;56.98;99535.66;4126762;28;20284;-56
2022/03/20 03:50:24;;;;;;;6.88;5.90;;;;;;;3.65;56.30;99535.25;4106509;28;20985;-56
2022/03/20 03:52:26;;;;;;;6.68;6.18;;;;;;;3.75;55.97;99532.28;4110650;28;20641;-55
2022/03/20 03:54:28;;;;;;;6.85;6.18;;;;;;;3.63;56.30;99529.19;4109881;28;20202;-55
2022/03/20 03:56:30;;;;;;;5.72;5.22;;;;;;;3.79;56.08;99525.47;4125563;28;20272;-56
2022/03/20 03:58:32;;;;;;;5.97;5.43;;;;;;;3.85;55.91;99522.91;4091454;28;20223;-55
2022/03/20 04:00:34;;;;;;;7.82;7.05;;;;;;;3.78;55.71;99521.09;4112264;28;20238;-56
2022/03/20 04:02:39;;;;;;;7.68;7.07;;;;;;;3.75;55.95;99530.41;4126083;28;20209;-56
2022/03/20 04:04:42;;;;;;;7.68;6.82;;;;;;;3.84;55.61;99532.03;4123506;28;20214;-56
2022/03/20 04:06:43;;;;;;;6.45;5.85;;;;;;;3.82;55.38;99528.69;4096056;28;20275;-56
2022/03/20 04:08:45;;;;;;;7.15;6.45;;;;;;;3.79;55.98;99542.56;4123451;28;20248;-56
2022/03/20 04:10:47;;;;;;;5.60;5.18;;;;;;;3.83;55.60;99529.50;4124909;28;20233;-56
2022/03/20 04:12:49;;;;;;;5.88;5.38;;;;;;;3.90;55.48;99528.59;4109409;28;20202;-56
2022/03/20 04:14:51;;;;;;;6.45;5.85;;;;;;;3.97;55.67;99524.13;4124164;28;20198;-56
2022/03/20 04:16:54;;;;;;;7.45;6.72;;;;;;;3.93;55.39;99530.09;4110933;28;20198;-56
2022/03/20 04:18:56;;;;;;;6.47;5.57;;;;;;;3.98;55.05;99527.66;4127407;28;20206;-57
2022/03/20 04:20:57;;;;;;;8.52;5.78;;;;;;;4.01;55.19;99525.44;4126070;28;20234;-57
2022/03/20 04:25:20;;;;;;;6.45;5.80;;;;;;;4.07;55.02;99523.88;4127635;28;20216;-56
2022/03/20 04:27:22;;;;;;;5.90;5.32;;;;;;;4.13;55.06;99531.28;4087788;28;20705;-56
2022/03/20 04:29:24;;;;;;;7.05;6.35;;;;;;;4.02;54.53;99535.28;4129025;28;20206;-57
2022/03/20 04:31:29;;;;;;;7.70;7.00;;;;;;;4.01;54.91;99528.16;4115488;28;20230;-57
2022/03/20 04:33:31;;;;;;;7.72;6.50;;;;;;;3.79;55.27;99529.03;4110708;28;20711;-55
2022/03/20 04:35:33;;;;;;;5.20;4.70;;;;;;;3.91;55.75;99532.13;4106072;28;20294;-56
2022/03/20 04:37:37;;;;;;;7.70;6.13;;;;;;;3.89;55.44;99524.22;4102961;28;20223;-55
2022/03/20 04:39:39;;;;;;;7.93;7.15;;;;;;;3.94;55.10;99527.19;4128166;28;20710;-56
2022/03/20 04:41:41;;;;;;;6.50;5.70;;;;;;;3.94;54.86;99518.25;4127969;28;20229;-56
2022/03/20 04:43:43;;;;;;;5.45;4.93;;;;;;;3.84;55.45;99521.22;4115072;28;20211;-55
2022/03/20 04:45:45;;;;;;;5.50;5.00;;;;;;;3.82;54.42;99522.41;4105325;28;20245;-56
2022/03/20 04:59:28;;;;;;;5.35;4.95;;;;;;;4.09;54.57;99525.38;4125815;28;20234;-55
2022/03/20 05:01:32;;;;;;;7.97;7.22;;;;;;;4.07;54.14;99532.81;4128058;28;20226;-55
2022/03/20 05:03:37;;;;;;;6.20;5.72;;;;;;;4.14;54.59;99528.34;4125471;28;20209;-56
2022/03/20 05:05:39;;;;;;;6.53;5.82;;;;;;;4.19;54.63;99536.78;4110995;28;20763;-55
2022/03/20 05:07:41;;;;;;;7.07;6.47;;;;;;;4.25;54.20;99540.59;4125032;28;20225;-56
2022/03/20 05:14:23;;;;;;;6.07;5.47;;;;;;;4.27;53.77;99539.41;4124383;28;20230;-55
2022/03/20 05:16:25;;;;;;;6.63;6.03;;;;;;;4.31;53.80;99538.00;4108086;28;20732;-56
2022/03/20 05:18:27;;;;;;;7.15;6.47;;;;;;;4.34;53.97;99543.03;4124003;28;20241;-56
2022/03/20 05:20:28;;;;;;;7.18;6.40;;;;;;;4.37;53.85;99539.97;4127070;28;20257;-56
2022/03/20 05:22:34;;;;;;;10.57;6.63;;;;;;;4.38;54.16;99547.06;4125439;28;20209;-55
2022/03/20 05:24:37;;;;;;;6.20;5.60;;;;;;;4.41;53.75;99540.44;4124887;28;20654;-55
2022/03/20 05:26:39;;;;;;;6.03;5.30;;;;;;;4.46;53.19;99538.84;4122255;28;20218;-55
2022/03/20 05:28:41;;;;;;;7.03;5.75;;;;;;;4.43;53.63;99541.09;4125282;28;20237;-56
2022/03/20 05:30:45;;;;;;;6.15;5.55;;;;;;;4.43;53.49;99541.09;4105576;28;20233;-56
2022/03/20 05:32:48;;;;;;;7.72;6.95;;;;;;;4.35;52.97;99536.59;4122878;28;20232;-55
2022/03/20 05:34:49;;;;;;;6.97;6.43;;;;;;;4.48;53.07;99539.50;4106274;28;20217;-56
2022/03/20 05:36:51;;;;;;;6.75;6.15;;;;;;;4.48;52.35;99536.78;4107569;28;20214;-57
2022/03/20 05:38:53;;;;;;;6.10;5.13;;;;;;;4.42;52.36;99536.72;4109981;28;20394;-56
2022/03/20 05:41:43;;;;;;;7.93;7.20;;;;;;;4.49;51.75;99533.06;4124728;28;20245;-56
2022/03/20 05:43:16;;;;;;;6.28;5.68;;;;;;;4.54;51.41;99535.22;4121171;28;20541;-56
2022/03/20 05:45:17;;;;;;;7.05;6.40;;;;;;;4.62;51.20;99541.41;4126687;28;20593;-56
2022/03/20 05:47:19;;;;;;;5.28;4.88;;;;;;;4.61;51.42;99536.16;4127083;28;20309;-56
2022/03/20 05:49:23;;;;;;;6.00;5.30;;;;;;;4.61;51.49;99539.69;4109704;28;20248;-56
2022/03/20 05:51:28;;;;;;;7.20;6.43;;;;;;;4.58;50.94;99537.38;4125394;28;20813;-57
2022/03/20 05:53:29;;;;;;;6.22;5.63;;;;;;;4.62;51.02;99538.69;4106041;28;20234;-55
2022/03/20 05:58:04;;;;;;;9.30;7.70;;;;;;;4.63;50.85;99540.38;4124257;28;20218;-55
2022/03/20 06:00:06;;;;;;;7.00;6.40;;;;;;;4.63;50.42;99540.38;4124187;28;20208;-55
2022/03/20 06:02:11;;;;;;;7.35;6.70;;;;;;;4.62;50.38;99544.09;4109690;28;20206;-56
2022/03/20 06:04:13;;;;;;;9.95;6.82;;;;;;;4.64;50.49;99536.63;4104791;28;20660;-56
2022/03/20 06:06:15;;;;;;;7.30;6.60;;;;;;;4.65;50.69;99538.28;4087438;28;20776;-56
2022/03/20 06:08:21;;;;;;;9.80;5.38;;;;;;;4.63;51.01;99532.22;4126116;28;20202;-56
2022/03/20 06:10:22;;;;;;;6.95;6.25;;;;;;;4.62;50.30;99538.69;4107202;28;20226;-55
2022/03/20 06:12:24;;;;;;;8.52;7.05;;;;;;;4.66;50.45;99526.41;4126578;28;20206;-55
2022/03/20 06:14:26;;;;;;;5.75;5.22;;;;;;;4.75;50.49;99533.44;4103092;28;20228;-56
2022/03/20 06:16:28;;;;;;;6.38;5.70;;;;;;;4.64;50.56;99531.19;4103970;28;20215;-55
2022/03/20 06:18:30;;;;;;;9.85;7.85;;;;;;;4.69;50.43;99533.34;4104964;28;20255;-56
2022/03/20 06:20:35;;;;;;;7.13;6.53;;;;;;;4.71;50.83;99537.53;4105570;28;20238;-56
2022/03/20 06:22:37;;;;;;;8.15;7.25;;;;;;;4.72;50.79;99536.50;4121278;28;20232;-56
2022/03/20 06:24:38;;;;;;;6.40;5.80;;;;;;;4.70;51.14;99546.72;4126817;28;20234;-55
2022/03/20 06:26:40;;;;;;;7.35;6.75;;;;;;;4.66;50.64;99550.00;4111987;28;20265;-55
2022/03/20 06:28:42;;;;;;;6.70;6.13;;;;;;;4.76;50.92;99542.41;4125365;28;20257;-55
2022/03/20 06:30:44;;;;;;;7.88;7.15;;;;;;;4.69;51.04;99555.88;4125550;28;20230;-56
2022/03/20 06:32:47;;;;;;;25.77;6.72;;;;;;;4.65;51.26;99559.97;4127540;28;20213;-56
2022/03/20 06:34:50;;;;;;;7.32;6.60;;;;;;;4.71;50.94;99563.81;4121245;28;20229;-56
2022/03/20 06:36:55;;;;;;;6.20;5.70;;;;;;;4.76;51.14;99562.22;4108316;28;20302;-56
2022/03/20 06:38:57;;;;;;;6.25;5.70;;;;;;;4.80;50.59;99568.13;4124482;28;20320;-56
2022/03/20 06:40:59;;;;;;;6.35;5.75;;;;;;;4.83;50.60;99568.59;4124005;28;20237;-56
2022/03/20 06:43:01;;;;;;;6.25;5.75;;;;;;;4.81;50.63;99576.03;4124340;28;20210;-56
2022/03/20 06:45:06;;;;;;;10.20;6.80;;;;;;;4.93;50.41;99579.16;4108232;28;20580;-56
2022/03/20 06:47:08;;;;;;;10.43;6.00;;;;;;;4.91;50.33;99573.91;4121523;28;20214;-55
2022/03/20 06:49:10;;;;;;;6.72;6.13;;;;;;;4.91;50.90;99568.47;4108829;28;20202;-55
2022/03/20 06:51:12;;;;;;;5.97;5.43;;;;;;;5.03;50.89;99569.69;4109931;28;20230;-56
2022/03/20 06:53:14;;;;;;;4.88;4.47;;;;;;;5.17;50.88;99563.38;4124816;28;20324;-55
2022/03/20 06:55:16;;;;;;;8.68;6.18;;;;;;;5.14;50.40;99550.19;4121572;28;20221;-55
2022/03/20 06:57:18;;;;;;;6.88;6.18;;;;;;;5.26;50.08;99554.09;4123991;28;20221;-57
2022/03/20 06:59:20;;;;;;;6.03;5.50;;;;;;;5.27;50.33;99555.78;4104239;28;20265;-53
2022/03/20 07:01:22;;;;;;;8.20;7.50;;;;;;;5.26;50.28;99554.09;4129537;28;20645;-53
2022/03/20 07:03:24;;;;;;;6.25;5.63;;;;;;;5.24;50.27;99557.00;4125989;28;20206;-51
2022/03/20 07:05:27;;;;;;;7.90;7.03;;;;;;;5.32;50.43;99559.63;4112353;28;20217;-52
2022/03/20 07:07:29;;;;;;;5.78;5.28;;;;;;;5.33;50.06;99566.72;4111811;28;20265;-52
2022/03/20 07:09:30;;;;;;;6.93;6.28;;;;;;;5.45;50.40;99565.19;4124743;28;20234;-52
2022/03/20 07:11:35;;;;;;;7.43;6.78;;;;;;;5.54;50.35;99574.03;4127481;28;20726;-52
2022/03/20 07:13:48;;;;;;;7.55;5.43;;;;;;;5.45;49.97;99575.19;4129699;28;20233;-52
2022/03/20 07:15:57;;;;;;;7.22;6.53;;;;;;;5.53;49.73;99586.78;4125372;28;20205;-52
2022/03/20 07:17:59;;;;;;;6.35;5.68;;;;;;;5.69;49.95;99596.56;4104706;28;20210;-54
2022/03/20 07:20:01;;;;;;;7.60;6.68;;;;;;;5.82;49.76;99594.03;4108863;28;20207;-51
2022/03/20 07:22:04;;;;;;;6.45;5.85;;;;;;;5.99;49.46;99600.88;4127883;28;20262;-52
2022/03/20 07:24:06;;;;;;;7.68;6.97;;;;;;;6.24;49.58;99610.31;4113041;28;20306;-51
2022/03/20 07:30:50;;;;;;;8.43;7.65;;;;;;;6.69;48.13;99607.09;4127051;28;20648;-51
2022/03/20 07:32:51;;;;;;;8.57;6.82;;;;;;;6.67;47.66;99601.00;4124748;28;20202;-51
2022/03/20 07:34:53;;;;;;;6.85;6.35;;;;;;;6.94;47.48;99602.84;4128795;28;20206;-51
2022/03/20 07:36:55;;;;;;;6.68;6.05;;;;;;;6.88;47.85;99600.97;4126890;28;20245;-52
2022/03/20 07:38:57;;;;;;;8.85;5.07;;;;;;;7.02;48.15;99600.00;4129802;28;20254;-51
2022/03/20 07:40:59;;;;;;;7.35;6.65;;;;;;;7.15;46.95;99610.94;4111473;28;20262;-51
2022/03/20 07:43:00;;;;;;;8.02;7.32;;;;;;;7.10;46.81;99608.00;4110591;28;20237;-51
2022/03/20 07:45:03;;;;;;;8.75;5.72;;;;;;;7.12;46.88;99601.31;4126237;28;20308;-51
2022/03/20 07:47:08;;;;;;;8.98;6.93;;;;;;;7.24;47.34;99607.00;4107186;28;20227;-52
2022/03/20 07:49:10;;;;;;;7.13;6.53;;;;;;;7.65;47.36;99608.66;4127502;28;20225;-51
2022/03/20 07:51:16;;;;;;;7.32;6.53;;;;;;;7.66;46.42;99606.75;4112143;28;20238;-52
2022/03/20 07:53:19;;;;;;;6.65;5.97;;;;;;;7.53;47.19;99614.88;4131110;28;20210;-53
2022/03/20 07:55:21;;;;;;;9.85;6.57;;;;;;;7.37;46.97;99613.34;4131259;28;20578;-53
2022/03/20 07:57:23;;;;;;;9.13;7.30;;;;;;;7.49;47.32;99619.06;4111762;28;20246;-51
2022/03/20 07:59:24;;;;;;;9.40;6.85;;;;;;;7.67;46.94;99622.03;4097145;28;20231;-52
2022/03/20 08:01:28;;;;;;;7.43;6.78;;;;;;;7.81;46.71;99623.78;4111713;28;20724;-52
2022/03/20 08:03:30;;;;;;;7.13;6.32;;;;;;;7.82;46.38;99625.47;4106806;28;20655;-52
2022/03/20 08:05:31;;;;;;;7.15;6.20;;;;;;;8.17;46.92;99624.28;4122618;28;20284;-52
2022/03/20 08:07:37;;;;;;;7.25;6.55;;;;;;;8.19;46.67;99622.16;4124995;28;20936;-52
2022/03/20 08:09:39;;;;;;;8.77;7.63;;;;;;;8.20;46.21;99618.44;4114603;28;20246;-51
2022/03/20 08:11:41;;;;;;;9.77;7.35;;;;;;;8.08;47.27;99615.44;4130150;28;20262;-52
2022/03/20 08:13:44;;;;;;;9.00;7.25;;;;;;;8.28;47.06;99620.97;4115030;28;20655;-52
2022/03/20 08:15:46;;;;;;;6.18;5.57;;;;;;;8.16;47.01;99628.06;4106501;28;20211;-52
2022/03/20 08:17:50;;;;;;;7.03;6.32;;;;;;;8.06;46.59;99616.69;4106868;28;20231;-51
2022/03/20 08:19:51;;;;;;;9.20;6.85;;;;;;;8.03;46.98;99611.69;4106540;28;20883;-51
2022/03/20 08:21:53;;;;;;;7.40;6.68;;;;;;;8.10;47.31;99615.25;4131695;28;20305;-52
2022/03/20 08:23:55;;;;;;;7.07;6.32;;;;;;;8.06;47.24;99616.69;4130115;28;20285;-52
2022/03/20 08:25:57;;;;;;;7.32;6.70;;;;;;;8.07;47.08;99621.09;4130830;28;20206;-52
2022/03/20 08:27:58;;;;;;;8.38;7.55;;;;;;;8.21;47.51;99615.50;4130819;28;21204;-52
2022/03/20 08:30:00;;;;;;;7.45;6.75;;;;;;;8.28;47.73;99620.97;4112713;28;20667;-52
2022/03/20 08:32:02;;;;;;;6.75;6.05;;;;;;;8.43;48.05;99624.34;4129463;28;20634;-53
2022/03/20 08:34:05;;;;;;;7.28;6.57;;;;;;;8.56;47.75;99621.59;4105224;28;20219;-52
2022/03/20 08:36:08;;;;;;;7.40;6.15;;;;;;;8.61;48.09;99627.28;4129231;28;20301;-51
2022/03/20 08:38:10;;;;;;;8.95;8.10;;;;;;;8.73;47.64;99620.09;4130552;28;20234;-52
2022/03/20 08:40:16;;;;;;;7.32;6.63;;;;;;;8.92;47.50;99635.63;4110752;28;20203;-51
2022/03/20 08:42:18;;;;;;;5.95;5.43;;;;;;;8.76;47.41;99636.09;4130046;28;20229;-50
2022/03/20 08:44:20;;;;;;;9.13;7.38;;;;;;;8.72;47.68;99632.09;4114971;28;20313;-51
2022/03/20 08:46:23;;;;;;;8.30;7.57;;;;;;;8.83;47.56;99634.19;4113104;28;20767;-51
2022/03/20 08:48:25;;;;;;;9.05;7.78;;;;;;;8.73;47.83;99640.06;4111457;28;20244;-52
2022/03/20 08:51:04;;;;;;;7.03;6.30;;;;;;;8.79;47.48;99646.56;4123836;28;20320;-51
2022/03/20 08:53:06;;;;;;;8.05;7.00;;;;;;;8.89;48.25;99647.00;4104705;28;20207;-50
2022/03/20 08:55:11;;;;;;;7.53;6.82;;;;;;;8.94;47.98;99644.47;4109210;28;20278;-51
2022/03/20 08:57:15;;;;;;;8.13;7.32;;;;;;;9.07;49.77;99638.97;4124573;28;20206;-51
2022/03/20 08:59:16;;;;;;;7.40;6.65;;;;;;;9.15;51.36;99646.94;4106174;28;20748;-50
2022/03/20 09:01:21;;;;;;;7.28;6.57;;;;;;;9.34;52.30;99640.59;4110102;28;20239;-51
2022/03/20 09:03:24;;;;;;;9.05;7.55;;;;;;;9.45;52.75;99642.66;4113692;28;20214;-51
2022/03/20 09:05:26;;;;;;;7.88;6.97;;;;;;;9.74;51.43;99637.47;4129537;28;20206;-52
2022/03/20 09:07:29;;;;;;;6.40;5.82;;;;;;;10.18;51.34;99650.31;4130965;28;20210;-52
2022/03/20 09:09:30;;;;;;;12.45;5.78;;;;;;;10.04;51.97;99648.72;4112450;28;20218;-52
2022/03/20 09:11:33;;;;;;;6.60;6.00;;;;;;;10.12;51.56;99653.94;4130495;28;20237;-52
2022/03/20 09:13:36;;;;;;;7.72;6.93;;;;;;;10.10;51.50;99650.59;4131742;28;20256;-51
2022/03/20 09:15:38;;;;;;;10.45;7.75;;;;;;;10.27;52.05;99657.22;4120338;28;20218;-52
2022/03/20 09:20:08;;;;;;;7.80;6.85;;;;;;;11.02;50.16;99650.50;4128843;28;20581;-52
2022/03/20 09:22:12;;;;;;;8.20;7.38;;;;;;;11.40;49.71;99645.69;4130879;28;20233;-52
2022/03/20 09:24:15;;;;;;;8.13;7.30;;;;;;;11.54;48.92;99644.47;4130588;28;20276;-53
2022/03/20 09:26:17;;;;;;;8.07;7.28;;;;;;;11.32;49.25;99650.63;4128001;28;20676;-52
2022/03/20 09:28:21;;;;;;;9.45;8.15;;;;;;;10.99;49.70;99656.44;4129460;28;20264;-52
2022/03/20 09:30:23;;;;;;;7.85;7.05;;;;;;;10.65;50.27;99642.41;4129629;28;20225;-53
2022/03/20 09:32:25;;;;;;;8.23;6.90;;;;;;;10.55;50.37;99641.22;4114818;28;20207;-52
2022/03/20 09:34:26;;;;;;;9.52;8.68;;;;;;;10.26;50.72;99641.84;4114402;28;20202;-52
2022/03/20 09:36:31;;;;;;;11.18;10.00;;;;;;;10.20;51.25;99642.72;4112508;28;20214;-52
2022/03/20 09:38:34;;;;;;;9.77;8.13;;;;;;;10.21;50.90;99633.47;4111390;28;20234;-52
2022/03/20 09:40:37;;;;;;;9.30;8.35;;;;;;;9.98;51.37;99639.47;4108858;28;20639;-51
2022/03/20 09:42:40;;;;;;;10.27;9.38;;;;;;;10.10;51.33;99647.84;4105184;28;20211;-52
2022/03/20 09:44:42;;;;;;;9.30;8.23;;;;;;;9.92;51.85;99658.63;4128955;28;20210;-53
2022/03/20 09:46:46;;;;;;;8.82;7.75;;;;;;;10.02;51.76;99656.28;4129478;28;20210;-53
2022/03/20 09:48:51;;;;;;;9.18;7.90;;;;;;;10.11;51.19;99665.94;4103266;28;20263;-51
2022/03/20 09:50:53;;;;;;;9.00;8.20;;;;;;;9.90;51.56;99674.44;4127980;28;20632;-52
2022/03/20 09:52:54;;;;;;;10.23;8.82;;;;;;;9.97;51.35;99670.63;4121812;28;20206;-52
2022/03/20 09:55:00;;;;;;;10.13;6.80;;;;;;;9.83;52.03;99668.97;4107170;28;20210;-55
2022/03/20 09:57:04;;;;;;;8.05;7.30;;;;;;;9.61;52.48;99677.72;4105246;28;20768;-53
2022/03/20 09:59:06;;;;;;;10.68;9.52;;;;;;;9.59;52.50;99671.59;4125336;28;20222;-52
2022/03/20 10:01:08;;;;;;;10.60;9.50;;;;;;;9.43;53.17;99683.00;4110811;28;20285;-51
2022/03/20 10:03:18;;;;;;;8.60;7.78;;;;;;;9.47;53.07;99685.09;4111589;28;20210;-52
2022/03/20 10:05:22;;;;;;;8.73;7.93;;;;;;;9.47;53.51;99686.97;4111295;28;20217;-51
2022/03/20 10:07:29;;;;;;;9.32;7.75;;;;;;;9.50;53.73;99687.41;4105389;28;20212;-51
2022/03/20 10:09:31;;;;;;;7.97;7.25;;;;;;;9.56;53.38;99677.50;4128247;28;20609;-52
2022/03/20 10:11:35;;;;;;;8.50;7.63;;;;;;;9.59;54.18;99686.13;4105513;28;20234;-53
2022/03/20 10:13:37;;;;;;;6.88;6.22;;;;;;;9.47;54.25;99689.69;4106111;28;20203;-52
2022/03/20 10:15:41;;;;;;;8.30;7.43;;;;;;;9.75;54.24;99693.00;4110305;28;20274;-52
2022/03/20 10:17:43;;;;;;;9.15;8.00;;;;;;;9.93;54.20;99696.69;4109290;28;20673;-53